Time;durP1;ratioP1;P1;durP2;ratioP2;P2;SDS_P1;SDS_P2;PMS_P1;PMS_P2;Temp;Humidity;BMP_temperature;BMP_pressure;BME280_temperature;BME280_humidity;BME280_pressure;Samples;Min_cycle;Max_cycle;Signal;HPM_P1;HPM_P2
2022/05/03 00:00:52;;;;;;;6.27;2.90;;;;;;;5.81;100.00;101136.22;7394413;19;20400;-52
2022/05/03 00:03:26;;;;;;;9.80;3.40;;;;;;;5.93;100.00;101137.84;7388337;19;20740;-55
2022/05/03 00:06:03;;;;;;;12.40;2.30;;;;;;;6.07;100.00;101137.09;7392026;19;20886;-56
2022/05/03 00:08:38;;;;;;;8.50;3.67;;;;;;;6.11;100.00;101132.19;7384648;19;20412;-56
2022/05/03 00:11:12;;;;;;;9.40;3.20;;;;;;;5.96;100.00;101138.06;7394235;19;20396;-57
2022/05/03 00:13:46;;;;;;;13.67;6.83;;;;;;;5.77;100.00;101130.78;7387731;19;20756;-59
2022/05/03 00:16:16;;;;;;;13.57;5.60;;;;;;;5.66;100.00;101125.81;7392724;19;20432;-55
2022/05/03 00:18:48;;;;;;;6.30;3.40;;;;;;;5.44;100.00;101112.38;7384277;19;20736;-53
2022/05/03 00:21:18;;;;;;;7.97;2.73;;;;;;;5.23;100.00;101113.56;7394867;19;20395;-58
2022/05/03 00:40:25;;;;;;;7.10;2.60;;;;;;;4.88;100.00;101059.97;7388133;19;20451;-56
2022/05/03 00:43:01;;;;;;;7.80;3.20;;;;;;;4.70;100.00;101061.34;7386755;19;20414;-56
2022/05/03 00:45:40;;;;;;;5.30;2.90;;;;;;;4.65;100.00;101054.09;7392322;19;20401;-57
2022/05/03 00:48:17;;;;;;;5.60;3.40;;;;;;;4.47;100.00;101041.81;7385962;19;20423;-56
2022/05/03 00:50:48;;;;;;;5.80;3.37;;;;;;;4.44;100.00;101027.16;7393813;19;20388;-51
2022/05/03 00:53:20;;;;;;;7.53;3.60;;;;;;;4.42;100.00;101009.94;7387747;19;20411;-57
2022/05/03 00:56:02;;;;;;;7.20;3.00;;;;;;;4.33;100.00;100999.97;7392187;19;20766;-53
2022/05/03 00:58:52;;;;;;;6.37;3.30;;;;;;;4.30;100.00;100992.97;7385193;19;20423;-56
2022/05/03 01:01:29;;;;;;;8.50;3.30;;;;;;;4.37;100.00;100984.09;7393676;19;20387;-53
2022/05/03 01:04:10;;;;;;;11.50;4.67;;;;;;;4.37;100.00;100983.19;7386853;19;20406;-52
2022/05/03 01:06:52;;;;;;;8.47;3.63;;;;;;;4.40;100.00;100974.06;7397558;19;20391;-58
2022/05/03 01:09:32;;;;;;;5.50;3.20;;;;;;;4.39;100.00;100959.50;7386830;19;20402;-52
2022/05/03 01:12:20;;;;;;;12.27;4.30;;;;;;;4.28;100.00;100950.19;7392686;19;20920;-57
2022/05/03 01:15:08;;;;;;;6.50;3.40;;;;;;;4.28;100.00;100939.97;7391259;19;20960;-56
2022/05/03 01:17:48;;;;;;;8.83;3.50;;;;;;;4.25;100.00;100922.78;7387903;19;20396;-57
2022/05/03 01:20:30;;;;;;;6.17;3.97;;;;;;;4.21;100.00;100914.78;7406733;19;20387;-53
2022/05/03 01:23:22;;;;;;;6.20;3.30;;;;;;;4.22;100.00;100897.03;7402580;19;20418;-49
2022/05/03 01:26:05;;;;;;;7.80;4.20;;;;;;;4.21;100.00;100884.16;7405441;19;20408;-60
2022/05/03 01:28:50;;;;;;;6.43;3.60;;;;;;;4.20;100.00;100885.81;7401688;19;20425;-54
2022/05/03 01:31:20;;;;;;;5.90;3.73;;;;;;;4.35;100.00;100869.78;7407070;19;20374;-58
2022/05/03 01:33:52;;;;;;;7.57;4.10;;;;;;;4.35;100.00;100851.91;7401233;19;20517;-52
2022/05/03 01:36:26;;;;;;;7.93;3.37;;;;;;;4.44;100.00;100853.41;7405077;19;20441;-56
2022/05/03 01:39:03;;;;;;;7.17;4.07;;;;;;;4.60;100.00;100854.44;7398299;19;20956;-55
2022/05/03 01:41:41;;;;;;;8.80;4.77;;;;;;;4.44;100.00;100857.63;7406982;19;20796;-50
2022/05/03 01:44:22;;;;;;;8.67;4.57;;;;;;;4.25;100.00;100855.50;7400917;19;20457;-48
2022/05/03 01:47:15;;;;;;;10.33;4.47;;;;;;;4.18;100.00;100847.41;7407148;19;20721;-53
2022/05/03 01:53:00;;;;;;;7.70;4.60;;;;;;;4.11;100.00;100816.22;7401817;19;20725;-51
2022/05/03 01:55:54;;;;;;;10.93;5.80;;;;;;;4.12;100.00;100797.56;7404692;19;20475;-56
2022/05/03 01:58:32;;;;;;;9.10;5.00;;;;;;;4.08;100.00;100783.69;7399387;19;20937;-59
2022/05/03 02:01:07;;;;;;;9.33;6.57;;;;;;;4.15;100.00;100774.81;7406708;19;20723;-55
2022/05/03 02:03:48;;;;;;;12.67;6.53;;;;;;;4.12;100.00;100762.72;7399601;19;20422;-55
2022/05/03 02:06:18;;;;;;;10.13;5.70;;;;;;;4.09;100.00;100752.25;7403778;19;20389;-48
2022/05/03 02:08:55;;;;;;;13.83;6.97;;;;;;;4.08;100.00;100739.38;7400454;19;20419;-58
2022/05/03 02:11:41;;;;;;;10.30;6.50;;;;;;;4.12;100.00;100726.94;7410342;19;20403;-60
2022/05/03 02:17:02;;;;;;;10.80;6.53;;;;;;;4.10;100.00;100710.63;7406064;19;20393;-50
2022/05/03 02:19:46;;;;;;;16.47;7.30;;;;;;;4.01;100.00;100698.13;7399101;19;20425;-57
2022/05/03 02:22:47;;;;;;;12.50;6.63;;;;;;;4.02;100.00;100676.03;7405872;19;20919;-55
2022/05/03 02:25:23;;;;;;;13.00;7.40;;;;;;;3.94;100.00;100677.19;7407116;19;20450;-53
2022/05/03 02:27:58;;;;;;;11.63;6.93;;;;;;;3.93;100.00;100653.31;7399273;19;20760;-49
2022/05/03 02:30:29;;;;;;;13.53;7.30;;;;;;;3.90;100.00;100648.91;7400193;19;20376;-55
2022/05/03 02:33:04;;;;;;;10.53;6.60;;;;;;;3.90;100.00;100628.47;7391270;19;20398;-50
2022/05/03 02:35:35;;;;;;;13.07;6.77;;;;;;;3.95;100.00;100605.78;7396269;19;20383;-59
2022/05/03 02:38:07;;;;;;;13.13;7.13;;;;;;;3.88;100.00;100591.75;7393651;19;20386;-54
2022/05/03 02:40:45;;;;;;;16.50;8.10;;;;;;;3.86;100.00;100577.13;7398080;19;20924;-52
2022/05/03 02:43:17;;;;;;;14.40;7.50;;;;;;;3.82;100.00;100553.06;7389282;19;20410;-51
2022/05/03 02:46:05;;;;;;;12.03;6.97;;;;;;;3.83;100.00;100529.31;7395772;19;20419;-54
2022/05/03 02:48:42;;;;;;;17.87;8.30;;;;;;;3.83;100.00;100507.97;7391223;19;20853;-53
2022/05/03 02:51:12;;;;;;;11.30;7.43;;;;;;;3.82;100.00;100481.59;7398037;19;20394;-54
2022/05/03 02:53:46;;;;;;;13.13;8.17;;;;;;;3.77;100.00;100463.44;7392194;19;20968;-57
2022/05/03 02:56:24;;;;;;;14.03;8.37;;;;;;;3.81;100.00;100444.09;7395532;19;20939;-50
2022/05/03 02:59:07;;;;;;;14.70;7.90;;;;;;;3.76;100.00;100425.91;7388844;19;20744;-52
2022/05/03 03:01:49;;;;;;;12.93;7.70;;;;;;;3.73;100.00;100406.97;7397597;19;20379;-53
2022/05/03 03:04:34;;;;;;;14.70;7.80;;;;;;;3.75;100.00;100387.56;7389742;19;20414;-53
2022/05/03 03:07:05;;;;;;;12.37;7.70;;;;;;;3.76;100.00;100368.91;7401466;19;20386;-53
2022/05/03 03:09:42;;;;;;;13.17;7.77;;;;;;;3.70;100.00;100348.97;7391757;19;20411;-58
2022/05/03 03:12:25;;;;;;;16.53;8.70;;;;;;;3.66;100.00;100329.16;7397482;19;20371;-54
2022/05/03 03:15:01;;;;;;;14.40;8.63;;;;;;;3.62;100.00;100305.13;7395086;19;20947;-54
2022/05/03 03:17:32;;;;;;;15.20;8.43;;;;;;;3.63;100.00;100289.03;7388355;19;20697;-55
2022/05/03 03:20:11;;;;;;;19.73;11.03;;;;;;;3.91;100.00;100256.69;7397327;19;20434;-58
2022/05/03 03:22:42;;;;;;;21.37;11.83;;;;;;;3.89;100.00;100248.03;7391746;19;20442;-53
2022/05/03 03:25:14;;;;;;;21.03;9.67;;;;;;;3.88;100.00;100241.16;7394210;19;20446;-52
2022/05/03 03:27:45;;;;;;;14.90;9.17;;;;;;;3.80;100.00;100227.06;7390143;19;20405;-56
2022/05/03 03:30:22;;;;;;;19.80;9.67;;;;;;;3.78;100.00;100219.31;7396335;19;20442;-56
2022/05/03 03:32:56;;;;;;;17.27;9.40;;;;;;;3.78;100.00;100191.22;7388673;19;20426;-55
2022/05/03 03:35:29;;;;;;;15.70;9.03;;;;;;;3.82;100.00;100177.88;7394736;19;20419;-50
2022/05/03 03:38:01;;;;;;;17.83;9.83;;;;;;;3.92;100.00;100162.31;7391799;19;20403;-59
2022/05/03 03:40:31;;;;;;;18.20;10.83;;;;;;;3.84;100.00;100148.22;7396043;19;20788;-55
2022/05/03 03:43:00;;;;;;;16.60;9.73;;;;;;;3.87;100.00;100138.19;7389405;19;20387;-56
2022/05/03 03:45:30;;;;;;;17.20;9.70;;;;;;;3.90;100.00;100137.50;7393377;19;20414;-54
2022/05/03 03:48:00;;;;;;;14.60;9.03;;;;;;;3.88;100.00;100131.41;7387417;19;20422;-52
2022/05/03 03:50:32;;;;;;;15.63;9.47;;;;;;;3.86;100.00;100126.22;7395534;19;20384;-50
2022/05/03 03:53:02;;;;;;;18.37;9.87;;;;;;;3.90;100.00;100117.94;7389225;19;20422;-57
2022/05/03 03:55:32;;;;;;;15.40;9.80;;;;;;;3.96;100.00;100111.44;7393882;19;20406;-53
2022/05/03 03:58:02;;;;;;;17.80;9.90;;;;;;;3.95;100.00;100114.78;7389021;19;20470;-51
2022/05/03 04:00:32;;;;;;;21.20;10.30;;;;;;;4.02;100.00;100112.69;7395324;19;20471;-55
2022/05/03 04:03:03;;;;;;;14.37;9.47;;;;;;;4.08;100.00;100096.84;7387387;19;20399;-49
2022/05/03 04:05:37;;;;;;;16.20;9.67;;;;;;;4.19;100.00;100100.88;7392737;19;20434;-49
2022/05/03 04:08:08;;;;;;;18.90;9.50;;;;;;;4.23;100.00;100090.81;7390487;19;20422;-52
2022/05/03 04:10:37;;;;;;;17.63;8.87;;;;;;;4.27;100.00;100095.31;7395135;19;20391;-53
2022/05/03 04:13:07;;;;;;;16.13;8.80;;;;;;;4.33;100.00;100093.13;7389418;19;20415;-54
2022/05/03 04:15:37;;;;;;;15.83;9.40;;;;;;;4.37;100.00;100089.97;7397701;19;20767;-59
2022/05/03 04:18:08;;;;;;;19.63;9.37;;;;;;;4.47;100.00;100086.25;7388998;19;20430;-55
2022/05/03 04:20:40;;;;;;;18.27;10.10;;;;;;;4.53;100.00;100090.78;7394704;19;20384;-49
2022/05/03 04:23:11;;;;;;;17.37;9.10;;;;;;;4.56;100.00;100083.31;7387565;19;20398;-55
2022/05/03 04:25:40;;;;;;;18.17;9.00;;;;;;;4.59;100.00;100086.03;7392529;19;20647;-50
2022/05/03 04:28:10;;;;;;;13.27;8.50;;;;;;;4.67;100.00;100084.75;7387118;19;20415;-54
2022/05/03 04:30:39;;;;;;;18.87;8.80;;;;;;;4.68;100.00;100076.28;7394327;19;20374;-54
2022/05/03 04:33:09;;;;;;;14.17;8.70;;;;;;;4.76;100.00;100088.63;7389377;19;20406;-56
2022/05/03 04:35:41;;;;;;;16.10;9.30;;;;;;;4.83;100.00;100088.16;7397002;19;20773;-56
2022/05/03 04:38:10;;;;;;;15.07;9.00;;;;;;;4.90;100.00;100082.59;7387191;19;20398;-53
2022/05/03 04:40:40;;;;;;;17.07;8.10;;;;;;;4.96;100.00;100082.03;7394037;19;20395;-58
2022/05/03 04:43:09;;;;;;;14.63;8.50;;;;;;;5.02;100.00;100076.38;7388916;19;20415;-57
2022/05/03 04:45:39;;;;;;;22.90;11.70;;;;;;;5.15;100.00;100078.78;7393752;19;21306;-57
2022/05/03 04:48:09;;;;;;;19.63;9.23;;;;;;;5.17;100.00;100087.41;7388609;19;20913;-57
2022/05/03 04:50:41;;;;;;;19.10;9.43;;;;;;;5.20;100.00;100081.56;7393775;19;20378;-56
2022/05/03 04:53:10;;;;;;;13.93;8.90;;;;;;;5.42;100.00;100088.69;7385547;19;20431;-53
2022/05/03 04:55:40;;;;;;;18.30;9.33;;;;;;;5.38;100.00;100086.75;7393487;19;20427;-52
2022/05/03 04:58:10;;;;;;;14.17;9.37;;;;;;;5.32;100.00;100086.47;7388699;19;20424;-56
2022/05/03 05:00:39;;;;;;;17.00;10.00;;;;;;;5.38;100.00;100091.88;7397626;19;20390;-51
2022/05/03 05:03:09;;;;;;;14.73;9.67;;;;;;;5.44;100.00;100092.19;7388198;19;20508;-57
2022/05/03 05:05:41;;;;;;;18.70;9.93;;;;;;;5.47;100.00;100097.50;7391319;19;20421;-50
2022/05/03 05:08:11;;;;;;;18.70;9.70;;;;;;;5.49;100.00;100100.13;7388353;19;20386;-57
2022/05/03 05:10:40;;;;;;;22.73;9.83;;;;;;;5.54;100.00;100096.16;7393118;19;20381;-53
2022/05/03 05:13:10;;;;;;;18.20;10.60;;;;;;;5.58;100.00;100099.72;7386277;19;20978;-53
2022/05/03 05:15:40;;;;;;;14.33;9.50;;;;;;;5.63;100.00;100103.38;7391233;19;20760;-53
2022/05/03 05:18:09;;;;;;;18.97;10.40;;;;;;;5.64;100.00;100100.91;7388185;19;20419;-56
2022/05/03 05:20:41;;;;;;;17.27;10.00;;;;;;;5.69;100.00;100098.56;7392748;19;20397;-55
2022/05/03 05:23:11;;;;;;;16.70;10.03;;;;;;;5.71;100.00;100097.00;7387635;19;20419;-54
2022/05/03 05:25:49;;;;;;;19.00;11.07;;;;;;;5.77;100.00;100094.75;7390920;19;20961;-58
2022/05/03 05:28:20;;;;;;;20.83;12.80;;;;;;;5.92;100.00;100091.19;7385165;19;20401;-52
2022/05/03 05:30:51;;;;;;;16.70;11.13;;;;;;;5.98;100.00;100091.50;7392417;19;20388;-56
2022/05/03 05:33:21;;;;;;;20.90;10.87;;;;;;;6.08;100.00;100087.75;7385786;19;20398;-54
2022/05/03 05:35:54;;;;;;;20.83;10.60;;;;;;;6.14;100.00;100094.84;7390893;19;20427;-56
2022/05/03 05:38:23;;;;;;;23.53;13.20;;;;;;;6.15;100.00;100094.91;7385708;19;20940;-49
2022/05/03 05:40:52;;;;;;;21.33;11.30;;;;;;;6.14;100.00;100093.16;7392265;19;20384;-52
2022/05/03 05:43:22;;;;;;;18.67;10.50;;;;;;;6.17;100.00;100087.31;7387429;19;20509;-52
2022/05/03 05:45:52;;;;;;;21.97;12.60;;;;;;;6.22;100.00;100085.88;7390108;19;20411;-54
2022/05/03 05:48:22;;;;;;;23.57;12.97;;;;;;;6.27;100.00;100080.94;7386548;19;20410;-53
2022/05/03 05:50:54;;;;;;;19.10;11.80;;;;;;;6.30;100.00;100081.97;7392049;19;20439;-54
2022/05/03 05:53:33;;;;;;;21.80;12.50;;;;;;;6.37;100.00;100077.16;7385368;19;20414;-49
2022/05/03 05:56:03;;;;;;;20.70;13.17;;;;;;;6.22;100.00;100070.50;7390441;19;20396;-59
2022/05/03 05:58:33;;;;;;;28.70;12.87;;;;;;;6.21;100.00;100061.06;7381246;19;20425;-56
2022/05/03 06:01:02;;;;;;;24.37;12.10;;;;;;;6.22;100.00;100050.84;7390852;19;20394;-55
2022/05/03 06:03:34;;;;;;;26.90;14.57;;;;;;;6.28;100.00;100037.47;7383399;19;20430;-52
2022/05/03 06:06:06;;;;;;;23.00;14.87;;;;;;;6.32;100.00;100035.94;7392446;19;20434;-51
2022/05/03 06:08:36;;;;;;;27.43;16.10;;;;;;;6.36;100.00;100017.31;7392799;19;20433;-49
2022/05/03 06:11:05;;;;;;;25.20;15.80;;;;;;;6.35;100.00;100000.19;7399062;19;20389;-52
2022/05/03 06:13:35;;;;;;;23.10;14.30;;;;;;;6.39;100.00;99996.09;7391181;19;20500;-58
2022/05/03 06:16:11;;;;;;;26.87;14.63;;;;;;;6.45;100.00;99986.13;7396409;19;20398;-55
2022/05/03 06:18:41;;;;;;;24.03;15.13;;;;;;;6.37;100.00;99983.22;7393918;19;20776;-52
2022/05/03 06:21:13;;;;;;;25.23;15.10;;;;;;;6.34;100.00;99975.38;7398721;19;20391;-50
2022/05/03 06:23:42;;;;;;;22.93;14.47;;;;;;;6.41;100.00;99959.47;7392640;19;20431;-52
2022/05/03 06:26:13;;;;;;;23.70;14.23;;;;;;;6.47;100.00;99940.97;7394253;19;20430;-52
2022/05/03 06:28:47;;;;;;;25.43;14.40;;;;;;;6.59;100.00;99932.94;7397197;19;20447;-50
2022/05/03 06:31:20;;;;;;;24.50;15.20;;;;;;;6.91;100.00;99925.78;7401569;19;20404;-55
2022/05/03 06:33:49;;;;;;;24.07;14.97;;;;;;;6.84;100.00;99931.47;7390247;19;20955;-50
2022/05/03 06:36:21;;;;;;;24.33;15.00;;;;;;;6.74;100.00;99932.75;7400245;19;20421;-54
2022/05/03 06:38:51;;;;;;;28.63;15.47;;;;;;;6.65;100.00;99932.34;7392030;19;20413;-53
2022/05/03 06:41:21;;;;;;;26.83;14.27;;;;;;;6.72;100.00;99929.25;7402277;19;20406;-49
2022/05/03 06:43:50;;;;;;;22.93;15.73;;;;;;;6.78;100.00;99933.75;7393598;19;20456;-56
2022/05/03 06:46:20;;;;;;;21.40;15.13;;;;;;;6.75;100.00;99937.06;7395345;19;20427;-52
2022/05/03 06:48:49;;;;;;;27.53;15.60;;;;;;;6.80;100.00;99934.69;7395114;19;20469;-60
2022/05/03 06:51:22;;;;;;;26.10;15.23;;;;;;;6.91;100.00;99933.47;7398486;19;20386;-53
2022/05/03 06:53:52;;;;;;;26.07;16.60;;;;;;;6.98;100.00;99937.19;7390261;19;20426;-59
2022/05/03 06:56:21;;;;;;;22.63;14.23;;;;;;;7.02;100.00;99941.63;7397663;19;20426;-54
2022/05/03 06:58:50;;;;;;;28.47;16.67;;;;;;;6.99;100.00;99941.50;7393141;19;20419;-54
2022/05/03 07:01:20;;;;;;;29.07;16.30;;;;;;;7.00;100.00;99940.69;7400681;19;20394;-55
2022/05/03 07:03:50;;;;;;;27.40;16.50;;;;;;;7.13;100.00;99937.84;7387818;19;20421;-53
2022/05/03 07:06:22;;;;;;;26.70;15.80;;;;;;;7.28;100.00;99939.31;7394475;19;20951;-55
2022/05/03 07:08:52;;;;;;;52.03;25.03;;;;;;;7.30;100.00;99945.38;7396893;19;20389;-56
2022/05/03 07:11:21;;;;;;;171.23;80.43;;;;;;;7.35;100.00;99954.16;7396699;19;20394;-58
2022/05/03 07:13:51;;;;;;;81.10;40.73;;;;;;;7.39;100.00;99950.88;7389701;19;20422;-55
2022/05/03 07:16:22;;;;;;;33.30;17.93;;;;;;;7.43;100.00;99952.78;7393497;19;20506;-56
2022/05/03 07:24:25;;;;;;;52.53;25.63;;;;;;;7.60;100.00;99970.59;7395308;19;20404;-56
2022/05/03 07:26:59;;;;;;;254.47;102.43;;;;;;;7.69;100.00;99964.91;7389659;19;20466;-53
2022/05/03 07:29:29;;;;;;;90.13;38.87;;;;;;;7.82;100.00;99980.03;7396692;19;20412;-54
2022/05/03 07:31:59;;;;;;;133.33;57.00;;;;;;;7.96;100.00;99975.44;7390315;19;20896;-56
2022/05/03 07:34:28;;;;;;;46.37;23.90;;;;;;;8.46;100.00;99977.34;7396592;19;20380;-60
2022/05/03 07:37:00;;;;;;;78.43;38.60;;;;;;;8.73;100.00;99970.63;7390071;19;20384;-50
2022/05/03 07:39:30;;;;;;;22.93;13.40;;;;;;;8.34;100.00;99993.19;7396025;19;20384;-57
2022/05/03 07:42:00;;;;;;;29.50;15.93;;;;;;;8.38;100.00;100004.47;7389276;19;20947;-56
2022/05/03 07:44:29;;;;;;;24.80;16.30;;;;;;;8.51;100.00;100010.94;7394577;19;20438;-55
2022/05/03 07:46:59;;;;;;;47.50;25.50;;;;;;;8.55;100.00;100009.41;7389109;19;20384;-49
2022/05/03 07:49:29;;;;;;;57.60;30.80;;;;;;;8.56;100.00;100022.31;7396141;19;20382;-57
2022/05/03 07:52:01;;;;;;;49.13;25.03;;;;;;;8.55;100.00;100023.13;7388176;19;20733;-52
2022/05/03 07:54:30;;;;;;;55.20;26.33;;;;;;;8.67;100.00;100022.72;7394612;19;20392;-58
2022/05/03 07:57:00;;;;;;;24.17;14.70;;;;;;;8.65;100.00;100032.06;7389574;19;20396;-58
2022/05/03 07:59:29;;;;;;;41.17;21.47;;;;;;;8.67;100.00;100038.13;7395450;19;20792;-57
2022/05/03 08:01:59;;;;;;;33.43;17.60;;;;;;;8.67;100.00;100042.41;7390460;19;20384;-55
2022/05/03 08:04:33;;;;;;;22.73;15.03;;;;;;;8.57;100.00;100046.34;7393891;19;20402;-54
2022/05/03 08:07:06;;;;;;;22.50;13.90;;;;;;;8.57;100.00;100054.06;7387243;19;20780;-54
2022/05/03 08:09:37;;;;;;;25.80;14.27;;;;;;;8.64;100.00;100058.59;7394810;19;20388;-57
2022/05/03 08:12:08;;;;;;;29.93;13.77;;;;;;;8.49;100.00;100074.28;7385254;19;20490;-54
2022/05/03 08:14:37;;;;;;;23.57;14.70;;;;;;;8.42;100.00;100067.16;7394032;19;20579;-59
2022/05/03 08:17:07;;;;;;;25.07;14.20;;;;;;;8.47;100.00;100070.78;7389904;19;20429;-55
2022/05/03 08:19:37;;;;;;;37.60;22.00;;;;;;;8.70;100.00;100079.41;7395036;19;20395;-54
2022/05/03 08:22:09;;;;;;;43.07;24.20;;;;;;;8.67;100.00;100078.44;7389884;19;20490;-56
2022/05/03 08:24:38;;;;;;;26.70;13.10;;;;;;;8.66;100.00;100084.38;7393908;19;20398;-58
2022/05/03 08:27:08;;;;;;;49.17;23.87;;;;;;;8.68;100.00;100091.34;7384565;19;20411;-58
2022/05/03 08:29:38;;;;;;;142.53;63.60;;;;;;;8.66;100.00;100090.41;7392588;19;20757;-60
2022/05/03 08:32:08;;;;;;;110.70;45.37;;;;;;;8.68;100.00;100101.63;7387845;19;20422;-50
2022/05/03 08:34:38;;;;;;;88.33;41.90;;;;;;;8.67;100.00;100109.28;7395475;19;20408;-54
2022/05/03 08:42:34;;;;;;;24.93;9.60;;;;;;;8.83;100.00;100132.22;7386903;19;20763;-52
2022/05/03 08:45:04;;;;;;;22.30;9.13;;;;;;;9.02;100.00;100133.78;7396967;19;20441;-55
2022/05/03 08:47:34;;;;;;;22.17;8.93;;;;;;;9.21;100.00;100144.78;7389564;19;20403;-58
2022/05/03 08:50:06;;;;;;;18.20;6.70;;;;;;;9.34;100.00;100155.53;7393993;19;20928;-54
2022/05/03 08:52:42;;;;;;;13.93;6.10;;;;;;;9.55;100.00;100170.91;7387599;19;20969;-54
2022/05/03 08:55:13;;;;;;;16.80;7.57;;;;;;;9.70;100.00;100186.91;7392192;19;20782;-50
2022/05/03 08:57:45;;;;;;;21.60;8.53;;;;;;;9.80;100.00;100213.88;7385933;19;20437;-51
2022/05/03 09:00:16;;;;;;;14.00;6.03;;;;;;;9.74;100.00;100265.19;7394050;19;20414;-50
2022/05/03 09:02:47;;;;;;;15.23;6.30;;;;;;;9.73;100.00;100325.25;7383522;19;20406;-56
2022/05/03 09:05:17;;;;;;;26.70;11.67;;;;;;;9.81;100.00;100379.66;7388342;19;20521;-54
2022/05/03 09:07:53;;;;;;;41.17;18.90;;;;;;;9.86;100.00;100446.00;7376789;19;20403;-55
2022/05/03 09:10:24;;;;;;;17.63;7.67;;;;;;;9.99;100.00;100509.25;7391286;19;20738;-56
2022/05/03 09:12:55;;;;;;;16.03;8.07;;;;;;;10.11;100.00;100549.22;7385294;19;20414;-54
2022/05/03 09:15:32;;;;;;;27.90;10.57;;;;;;;10.17;100.00;100605.31;7388706;19;20458;-51
2022/05/03 09:18:02;;;;;;;19.40;7.60;;;;;;;10.36;100.00;100648.19;7386456;19;20407;-52
2022/05/03 09:26:15;;;;;;;16.30;9.20;;;;;;;10.99;100.00;100749.63;7389877;19;20475;-54
2022/05/03 09:28:46;;;;;;;18.13;7.80;;;;;;;11.02;100.00;100786.78;7385628;19;20426;-52
2022/05/03 09:31:17;;;;;;;16.13;8.80;;;;;;;10.91;100.00;100803.53;7391276;19;20391;-55
2022/05/03 09:33:46;;;;;;;13.10;6.93;;;;;;;11.19;100.00;100809.81;7383610;19;20443;-52
2022/05/03 09:36:16;;;;;;;15.83;6.77;;;;;;;11.40;100.00;100814.97;7389411;19;20776;-52
2022/05/03 09:39:08;;;;;;;9.63;5.10;;;;;;;10.93;100.00;100856.13;7382088;19;20423;-51
2022/05/03 09:41:38;;;;;;;15.70;6.40;;;;;;;11.07;100.00;100849.81;7398696;19;20387;-57
2022/05/03 09:44:09;;;;;;;16.37;6.27;;;;;;;10.99;100.00;100883.88;7396689;19;20413;-55
2022/05/03 09:46:53;;;;;;;14.90;6.03;;;;;;;10.98;100.00;100908.81;7397916;19;20398;-52
2022/05/03 09:49:36;;;;;;;8.20;3.80;;;;;;;10.99;100.00;100922.59;7397789;19;20429;-55
2022/05/03 09:52:09;;;;;;;9.23;4.07;;;;;;;11.01;100.00;100934.75;7393334;19;20415;-50
2022/05/03 09:54:51;;;;;;;20.17;6.70;;;;;;;11.24;100.00;100923.63;7397463;19;20402;-54
2022/05/03 09:57:23;;;;;;;30.13;17.00;;;;;;;11.67;100.00;100934.84;7391156;19;20944;-54
2022/05/03 09:59:54;;;;;;;17.03;6.80;;;;;;;11.89;100.00;100957.25;7399424;19;20394;-54
2022/05/03 10:02:25;;;;;;;7.50;3.07;;;;;;;11.86;100.00;100964.91;7394562;19;20414;-52
2022/05/03 10:04:56;;;;;;;9.83;3.77;;;;;;;11.47;100.00;100973.66;7397722;19;20413;-56
2022/05/03 10:07:26;;;;;;;11.43;3.80;;;;;;;11.19;100.00;100988.88;7389325;19;20416;-54
2022/05/03 10:09:58;;;;;;;13.80;5.30;;;;;;;10.99;100.00;100992.31;7399624;19;20389;-52
2022/05/03 10:12:28;;;;;;;9.87;3.97;;;;;;;11.31;100.00;100980.78;7390227;19;20413;-50
2022/05/03 10:14:58;;;;;;;10.63;4.00;;;;;;;11.66;100.00;100971.84;7397469;19;20421;-54
2022/05/03 10:23:23;;;;;;;8.90;2.53;;;;;;;11.42;100.00;101040.66;7393080;19;20433;-55
2022/05/03 10:25:57;;;;;;;10.10;3.00;;;;;;;11.50;100.00;101042.69;7396178;19;20435;-55
2022/05/03 10:28:29;;;;;;;7.43;2.90;;;;;;;11.20;100.00;101050.06;7390157;19;20441;-53
2022/05/03 10:31:16;;;;;;;8.47;2.73;;;;;;;11.28;100.00;101042.63;7398759;19;20392;-53
2022/05/03 10:33:46;;;;;;;12.17;3.47;;;;;;;11.25;100.00;101051.97;7393360;19;20996;-53
2022/05/03 10:36:51;;;;;;;10.17;2.70;;;;;;;11.68;100.00;101042.56;7395901;19;20432;-55
2022/05/03 10:39:23;;;;;;;7.30;2.53;;;;;;;11.81;100.00;101054.31;7397008;19;20423;-56
2022/05/03 10:42:02;;;;;;;9.63;2.80;;;;;;;11.71;100.00;101072.03;7390269;19;20391;-56
2022/05/03 10:45:00;;;;;;;8.00;2.93;;;;;;;11.72;100.00;101073.81;7396895;19;20416;-52
2022/05/03 10:47:48;;;;;;;9.03;3.10;;;;;;;11.74;100.00;101079.91;7391257;19;20426;-54
2022/05/03 10:50:26;;;;;;;8.07;3.10;;;;;;;11.42;100.00;101078.50;7398092;19;20385;-50
2022/05/03 10:53:22;;;;;;;8.63;3.00;;;;;;;11.16;100.00;101076.56;7394076;19;20452;-50
2022/05/03 10:56:22;;;;;;;8.67;2.53;;;;;;;11.23;100.00;101069.97;7392564;19;20540;-55
2022/05/03 10:59:18;;;;;;;19.20;8.40;;;;;;;11.17;100.00;101078.34;7384829;19;20431;-51
2022/05/03 11:02:09;;;;;;;9.70;2.50;;;;;;;11.51;100.00;101099.59;7393932;19;20403;-52
2022/05/03 11:05:09;;;;;;;107.53;33.40;;;;;;;11.75;100.00;101102.34;7397739;19;20410;-55
2022/05/03 11:07:39;;;;;;;69.13;21.10;;;;;;;11.39;100.00;101097.34;7388819;19;20740;-55
2022/05/03 11:10:41;;;;;;;10.80;3.10;;;;;;;11.30;100.00;101094.38;7396896;19;20771;-53
2022/05/03 11:13:43;;;;;;;10.73;3.43;;;;;;;11.39;100.00;101091.31;7390314;19;20446;-55
2022/05/03 11:16:34;;;;;;;14.10;2.77;;;;;;;11.44;100.00;101101.03;7396870;19;20428;-57
2022/05/03 11:19:11;;;;;;;10.50;3.10;;;;;;;11.38;100.00;101105.91;7392785;19;20425;-55
2022/05/03 11:21:41;;;;;;;39.57;15.27;;;;;;;11.53;100.00;101115.19;7396812;19;20391;-58
2022/05/03 11:24:19;;;;;;;9.63;2.57;;;;;;;11.68;100.00;101114.94;7385687;19;20958;-53
2022/05/03 11:26:50;;;;;;;6.73;2.77;;;;;;;11.54;100.00;101124.69;7386711;19;20383;-53
2022/05/03 11:29:20;;;;;;;13.03;4.87;;;;;;;11.91;100.00;101130.56;7394297;19;20396;-53
2022/05/03 11:31:53;;;;;;;11.53;2.50;;;;;;;12.43;100.00;101155.16;7390035;19;20396;-60
2022/05/03 11:34:23;;;;;;;22.63;6.40;;;;;;;12.19;100.00;101155.91;7393452;19;20380;-50
2022/05/03 11:36:53;;;;;;;8.97;2.50;;;;;;;12.11;100.00;101165.91;7390157;19;20380;-55
2022/05/03 11:39:25;;;;;;;17.90;4.00;;;;;;;12.05;100.00;101182.91;7395219;19;20494;-57
2022/05/03 11:41:54;;;;;;;11.17;2.60;;;;;;;12.01;100.00;101185.31;7390256;19;21021;-54
2022/05/03 11:44:24;;;;;;;17.33;4.30;;;;;;;11.97;100.00;101187.69;7394330;19;20456;-53
2022/05/03 11:46:56;;;;;;;7.43;3.07;;;;;;;11.75;100.00;101179.88;7387847;19;20393;-54
2022/05/03 11:49:26;;;;;;;8.20;2.53;;;;;;;11.79;100.00;101182.63;7393619;19;20458;-53
2022/05/03 11:57:23;;;;;;;10.33;3.17;;;;;;;11.89;100.00;101183.09;7387734;19;20419;-57
2022/05/03 11:59:55;;;;;;;10.30;4.00;;;;;;;11.95;100.00;101202.28;7395653;19;20386;-56
2022/05/03 12:02:37;;;;;;;8.87;2.57;;;;;;;11.97;100.00;101206.69;7389902;19;20730;-54
2022/05/03 12:05:17;;;;;;;11.33;4.50;;;;;;;12.13;100.00;101208.28;7396881;19;20463;-57
2022/05/03 12:07:49;;;;;;;7.90;2.60;;;;;;;12.35;100.00;101223.81;7384257;19;20414;-56
2022/05/03 12:10:21;;;;;;;12.67;3.77;;;;;;;12.26;100.00;101221.72;7393045;19;20390;-58
2022/05/03 12:13:07;;;;;;;8.27;3.07;;;;;;;12.49;100.00;101232.13;7387316;19;20499;-53
2022/05/03 12:15:39;;;;;;;12.13;2.73;;;;;;;12.32;100.00;101240.09;7392600;19;20405;-52
2022/05/03 12:18:16;;;;;;;10.80;3.53;;;;;;;11.99;100.00;101241.25;7387023;19;20742;-55
2022/05/03 12:20:49;;;;;;;10.80;2.37;;;;;;;12.48;100.00;101236.44;7394677;19;20382;-56
2022/05/03 12:23:21;;;;;;;8.83;2.60;;;;;;;12.76;100.00;101245.34;7384784;19;20418;-54
2022/05/03 12:25:53;;;;;;;12.87;2.87;;;;;;;13.24;100.00;101242.03;7392788;19;20446;-55
2022/05/03 12:28:24;;;;;;;10.83;2.30;;;;;;;13.20;100.00;101244.44;7389220;19;20403;-56
2022/05/03 12:30:58;;;;;;;9.30;2.33;;;;;;;13.43;100.00;101253.09;7394770;19;20384;-52
2022/05/03 12:33:30;;;;;;;9.43;3.20;;;;;;;13.71;100.00;101268.84;7390535;19;20423;-51
2022/05/03 12:36:00;;;;;;;8.27;2.70;;;;;;;13.75;100.00;101274.19;7393097;19;20489;-50